LFCR/RDZ METAR and TAF weather

Enter ICAO airport designator
Station Type Date Time Source
LFCR METAR 2020/01/21 18:30 UTC NOAA

LFCR 211830Z AUTO 09007KT CAVOK 08/01 Q1031 NOSIG


Station Type Date Time Source
LFCR Decoded METAR 2020/01/21 18:30 UTC NOAA

Rodez, France (LFCR) 44-24N 002-29E 580M
Jan 21, 2020 - 01:30 PM EST / 2020.01.21 1830 UTC
Wind: from the E (090 degrees) at 8 MPH (7 KT):0
Visibility: greater than 7 mile(s):0
Temperature: 46 F (8 C)
Dew Point: 33 F (1 C)
Relative Humidity: 61%
Pressure (altimeter): 30.45 in. Hg (1031 hPa)
ob: LFCR 211830Z AUTO 09007KT CAVOK 08/01 Q1031 NOSIG
cycle: 18

Station Type Date Time Source
LFCR TAF 2020/01/21 18:21 UTC NOAA

TAF LFCR 211700Z 2118/2218 10010KT CAVOK
BECMG 2208/2210 OVC020
BECMG 2215/2217 CAVOK

Example: see airport list